createdAt,value
2019-03-19T00:00:29.157Z,94848.58
2019-03-19T00:02:55.488Z,94852.08
2019-03-19T00:05:21.881Z,94849.73
2019-03-19T00:07:48.230Z,94853.95
2019-03-19T00:10:14.571Z,94855.47
2019-03-19T00:12:41.013Z,94854.64
2019-03-19T00:15:07.471Z,94851.16
2019-03-19T00:17:33.801Z,94849.37
2019-03-19T00:20:00.358Z,94850.89
2019-03-19T00:22:26.553Z,94848.55
2019-03-19T00:24:52.920Z,94850.66
2019-03-19T00:27:19.232Z,94853.36
2019-03-19T00:29:45.596Z,94852.41
2019-03-19T00:32:12.058Z,94849.27
2019-03-19T00:34:38.396Z,94847.40
2019-03-19T00:37:04.731Z,94844.59
2019-03-19T00:39:31.062Z,94847.73
2019-03-19T00:41:57.425Z,94842.81
2019-03-19T00:44:23.764Z,94842.81
2019-03-19T00:46:50.187Z,94849.84
2019-03-19T00:49:16.685Z,94842.02
2019-03-19T00:51:43.088Z,94841.66
2019-03-19T00:54:09.453Z,94838.27
2019-03-19T00:56:35.839Z,94838.27
2019-03-19T00:59:02.153Z,94846.80
2019-03-19T01:01:28.504Z,94840.84
2019-03-19T01:03:54.879Z,94849.96
2019-03-19T01:06:21.618Z,94847.63
2019-03-19T01:08:48.007Z,94850.66
2019-03-19T01:11:14.382Z,94855.75
2019-03-19T01:13:40.674Z,94853.41
2019-03-19T01:16:07.207Z,94850.24
2019-03-19T01:18:33.553Z,94853.08
2019-03-19T01:20:59.891Z,94856.93
2019-03-19T01:23:26.240Z,94850.51
2019-03-19T01:25:55.456Z,94856.34
2019-03-19T01:28:18.945Z,94862.77
2019-03-19T01:30:45.276Z,94860.80
2019-03-19T01:33:11.645Z,94863.23
2019-03-19T01:35:37.976Z,94864.42
2019-03-19T01:38:04.274Z,94867.22
2019-03-19T01:40:30.671Z,94870.02
2019-03-19T01:42:57.071Z,94869.70
2019-03-19T01:45:23.423Z,94874.57
2019-03-19T01:47:49.800Z,94871.80
2019-03-19T01:50:16.153Z,94873.20
2019-03-19T01:52:42.500Z,94879.28
2019-03-19T01:55:08.945Z,94880.21
2019-03-19T01:57:35.277Z,94886.73
2019-03-19T02:00:01.671Z,94881.27
2019-03-19T02:02:28.098Z,94882.32
2019-03-19T02:04:54.370Z,94884.06
2019-03-19T02:07:20.764Z,94883.94
2019-03-19T02:09:47.229Z,94889.30
2019-03-19T02:12:13.627Z,94888.28
2019-03-19T02:14:40.032Z,94898.44
2019-03-19T02:17:06.325Z,94897.52
2019-03-19T02:19:32.728Z,94900.55
2019-03-19T02:21:59.047Z,94903.48
2019-03-19T02:24:25.462Z,94906.15
2019-03-19T02:26:51.803Z,94908.72
2019-03-19T02:29:18.132Z,94910.05
2019-03-19T02:31:44.480Z,94910.05
2019-03-19T02:34:10.799Z,94918.09
2019-03-19T02:36:37.188Z,94915.88
2019-03-19T02:39:03.522Z,94925.02
2019-03-19T02:41:29.863Z,94931.77
2019-03-19T02:43:56.169Z,94931.77
2019-03-19T02:46:22.554Z,94935.47
2019-03-19T02:48:48.910Z,94942.55
2019-03-19T02:51:15.239Z,94956.20
2019-03-19T02:53:41.625Z,94954.39
2019-03-19T02:56:07.933Z,94952.51
2019-03-19T02:58:34.275Z,94956.27
2019-03-19T03:01:00.653Z,94964.80
2019-03-19T03:03:26.993Z,94969.36
2019-03-19T03:05:53.378Z,94965.86
2019-03-19T03:08:19.728Z,94965.27
2019-03-19T03:10:48.042Z,94966.69
2019-03-19T03:13:12.417Z,94961.78
2019-03-19T03:15:38.784Z,94967.15
2019-03-19T03:18:05.162Z,94970.41
2019-03-19T03:20:31.551Z,94973.58
2019-03-19T03:22:57.925Z,94980.02
2019-03-19T03:25:24.299Z,94980.02
2019-03-19T03:27:50.648Z,94983.74
2019-03-19T03:30:17.011Z,94982.12
2019-03-19T03:32:43.382Z,94986.58
2019-03-19T03:35:09.731Z,94979.33
2019-03-19T03:37:36.060Z,94985.63
2019-03-19T03:40:02.459Z,94983.74
2019-03-19T03:42:28.879Z,94993.47
2019-03-19T03:44:55.197Z,94991.45
2019-03-19T03:47:21.635Z,94991.82
2019-03-19T03:49:47.993Z,94993.01
2019-03-19T03:52:14.323Z,94997.20
2019-03-19T03:54:40.674Z,95000.83
2019-03-19T03:57:07.082Z,95003.63
2019-03-19T03:59:33.422Z,95011.84
2019-03-19T04:01:59.768Z,95013.50
2019-03-19T04:04:26.111Z,95018.05
2019-03-19T04:06:52.496Z,95022.41
2019-03-19T04:09:18.832Z,95016.22
2019-03-19T04:11:45.170Z,95024.64
2019-03-19T04:14:11.513Z,95022.79
2019-03-19T04:16:37.900Z,95015.80
2019-03-19T04:19:04.255Z,95017.78
2019-03-19T04:21:30.592Z,95023.02
2019-03-19T04:23:56.931Z,95031.01
2019-03-19T04:26:23.266Z,95028.90
2019-03-19T04:28:49.602Z,95032.20
2019-03-19T04:31:16.005Z,95030.91
2019-03-19T04:33:42.361Z,95033.28
2019-03-19T04:36:08.691Z,95035.75
2019-03-19T04:38:35.034Z,95032.95
2019-03-19T04:41:01.379Z,95021.00
2019-03-19T04:43:27.753Z,95033.05
2019-03-19T04:45:54.130Z,95041.49
2019-03-19T04:48:20.467Z,95037.97
2019-03-19T04:50:46.793Z,95038.69
2019-03-19T04:53:13.162Z,95041.72
2019-03-19T04:55:39.496Z,95050.50
2019-03-19T04:58:05.827Z,95051.09
2019-03-19T05:00:32.376Z,95059.17
2019-03-19T05:02:58.694Z,95065.97
2019-03-19T05:05:25.064Z,95064.80
2019-03-19T05:07:51.398Z,95067.37
2019-03-19T05:10:17.769Z,95071.58
2019-03-19T05:12:44.086Z,95068.54
2019-03-19T05:15:10.646Z,95071.11
2019-03-19T05:17:36.973Z,95071.81
2019-03-19T05:20:03.303Z,95075.92
2019-03-19T05:22:29.699Z,95072.54
2019-03-19T05:24:56.001Z,95078.27
2019-03-19T05:27:22.373Z,95072.73
2019-03-19T05:29:48.701Z,95081.03
2019-03-19T05:32:15.059Z,95090.86
2019-03-19T05:34:41.500Z,95082.31
2019-03-19T05:37:07.887Z,95088.16
2019-03-19T05:39:34.239Z,95092.14
2019-03-19T05:42:00.777Z,95087.56
2019-03-19T05:44:27.071Z,95090.94
2019-03-19T05:46:53.624Z,95087.18
2019-03-19T05:49:19.991Z,95086.58
2019-03-19T05:51:46.314Z,95091.59
2019-03-19T05:54:12.700Z,95094.42
2019-03-19T05:56:39.039Z,95094.06
2019-03-19T05:59:05.527Z,95100.52
2019-03-19T06:01:31.795Z,95106.22
2019-03-19T06:03:58.215Z,95105.87
2019-03-19T06:06:24.627Z,95104.83
2019-03-19T06:08:50.915Z,95108.91
2019-03-19T06:11:17.341Z,95109.81
2019-03-19T06:13:43.718Z,95104.41
2019-03-19T06:16:10.054Z,95109.92
2019-03-19T06:18:36.374Z,95107.66
2019-03-19T06:21:02.724Z,95106.95
2019-03-19T06:23:29.046Z,95110.81
2019-03-19T06:25:55.420Z,95105.98
2019-03-19T06:28:21.797Z,95105.97
2019-03-19T06:30:48.157Z,95113.25
2019-03-19T06:33:14.495Z,95110.59
2019-03-19T06:35:40.883Z,95118.09
2019-03-19T06:38:07.256Z,95118.64
2019-03-19T06:40:36.103Z,95118.02
2019-03-19T06:43:02.480Z,95122.92
2019-03-19T06:45:28.821Z,95123.39
2019-03-19T06:47:55.148Z,95113.64
2019-03-19T06:50:21.569Z,95125.22
2019-03-19T06:52:48.004Z,95120.59
2019-03-19T06:55:14.337Z,95124.17
2019-03-19T06:57:40.668Z,95124.17
2019-03-19T07:00:07.017Z,95131.88
2019-03-19T07:02:33.427Z,95128.46
2019-03-19T07:04:59.807Z,95133.52
2019-03-19T07:07:26.162Z,95114.19
2019-03-19T07:09:52.505Z,95127.05
2019-03-19T07:12:18.850Z,95122.55
2019-03-19T07:14:45.240Z,95125.50
2019-03-19T07:17:11.604Z,95128.46
2019-03-19T07:19:37.956Z,95131.70
2019-03-19T07:22:04.478Z,95136.15
2019-03-19T07:24:30.769Z,95127.19
2019-03-19T07:26:57.151Z,95130.20
2019-03-19T07:29:23.502Z,95130.41
2019-03-19T07:31:50.097Z,95134.70
2019-03-19T07:34:16.599Z,95133.09
2019-03-19T07:36:42.905Z,95133.47
2019-03-19T07:39:09.236Z,95134.03
2019-03-19T07:41:35.721Z,95132.73
2019-03-19T07:44:02.167Z,95135.63
2019-03-19T07:46:28.540Z,95130.81
2019-03-19T07:48:54.894Z,95130.92
2019-03-19T07:51:21.365Z,95129.98
2019-03-19T07:53:47.699Z,95139.65
2019-03-19T07:56:14.047Z,95132.73
2019-03-19T07:58:45.235Z,95139.30
2019-03-19T08:01:06.810Z,95139.65
2019-03-19T08:03:33.184Z,95130.83
2019-03-19T08:05:59.539Z,95135.51
2019-03-19T08:08:25.923Z,95131.33
2019-03-19T08:10:52.282Z,95129.98
2019-03-19T08:13:18.745Z,95132.48
2019-03-19T08:15:45.091Z,95132.69
2019-03-19T08:18:11.490Z,95135.98
2019-03-19T08:20:37.862Z,95129.16
2019-03-19T08:23:04.258Z,95128.48
2019-03-19T08:25:30.651Z,95120.16
2019-03-19T08:27:57.052Z,95125.45
2019-03-19T08:30:24.855Z,95128.34
2019-03-19T08:32:49.738Z,95127.78
2019-03-19T08:35:16.134Z,95122.55
2019-03-19T08:37:42.541Z,95120.28
2019-03-19T08:40:08.868Z,95113.30
2019-03-19T08:42:35.237Z,95109.00
2019-03-19T08:45:01.633Z,95113.09
2019-03-19T08:47:28.129Z,95116.88
2019-03-19T08:49:54.436Z,95114.55
2019-03-19T08:52:20.830Z,95113.98
2019-03-19T08:54:47.181Z,95112.53
2019-03-19T08:57:13.620Z,95110.81
2019-03-19T08:59:39.968Z,95107.11
2019-03-19T09:02:06.347Z,95105.91
2019-03-19T09:04:32.744Z,95107.78
2019-03-19T09:06:59.367Z,95108.19
2019-03-19T09:09:25.675Z,95108.49
2019-03-19T09:11:52.016Z,95103.73
2019-03-19T09:14:20.671Z,95106.42
2019-03-19T09:16:45.132Z,95101.63
2019-03-19T09:19:11.475Z,95106.55
2019-03-19T09:21:37.818Z,95104.73
2019-03-19T09:24:04.256Z,95099.66
2019-03-19T09:26:30.606Z,95099.56
2019-03-19T09:28:56.962Z,95097.62
2019-03-19T09:31:23.346Z,95095.76
2019-03-19T09:33:49.680Z,95094.47
2019-03-19T09:36:16.061Z,95093.17
2019-03-19T09:38:42.465Z,95090.84
2019-03-19T09:43:56.106Z,95091.63
2019-03-19T09:46:22.456Z,95095.14
2019-03-19T09:48:48.861Z,95092.48
2019-03-19T09:51:15.240Z,95095.59
2019-03-19T09:53:41.632Z,95098.29
2019-03-19T09:56:08.160Z,95088.57
2019-03-19T09:58:34.517Z,95089.97
2019-03-19T10:01:00.888Z,95092.28
2019-03-19T10:03:27.242Z,95089.30
2019-03-19T10:05:53.667Z,95088.38
2019-03-19T10:08:20.041Z,95089.86
2019-03-19T10:10:46.403Z,95088.98
2019-03-19T10:13:14.957Z,95094.27
2019-03-19T10:15:39.131Z,95081.70
2019-03-19T10:18:05.468Z,95080.36
2019-03-19T10:20:31.974Z,95081.05
2019-03-19T10:22:58.479Z,95082.98
2019-03-19T10:25:24.872Z,95084.80
2019-03-19T10:27:51.172Z,95078.14
2019-03-19T10:30:17.525Z,95080.89
2019-03-19T10:32:43.880Z,95077.84
2019-03-19T10:35:10.252Z,95075.38
2019-03-19T10:37:36.611Z,95074.22
2019-03-19T10:40:04.039Z,95075.98
2019-03-19T10:42:30.410Z,95069.63
2019-03-19T10:44:56.833Z,95069.87
2019-03-19T10:47:23.212Z,95073.75
2019-03-19T10:49:49.535Z,95064.10
2019-03-19T10:52:15.899Z,95063.93
2019-03-19T10:54:42.253Z,95063.93
2019-03-19T10:57:08.615Z,95062.64
2019-03-19T10:59:36.262Z,95056.53
2019-03-19T11:02:02.608Z,95051.53
2019-03-19T11:04:28.953Z,95050.38
2019-03-19T11:06:55.278Z,95043.27
2019-03-19T11:09:21.681Z,95035.91
2019-03-19T11:11:48.134Z,95037.98
2019-03-19T11:14:14.456Z,95030.95
2019-03-19T11:16:40.804Z,95026.92
2019-03-19T11:19:07.197Z,95029.27
2019-03-19T11:21:33.548Z,95030.02
2019-03-19T11:23:59.883Z,95023.81
2019-03-19T11:26:26.295Z,95029.00
2019-03-19T11:28:52.641Z,95023.00
2019-03-19T11:31:19.156Z,95017.17
2019-03-19T11:33:47.633Z,95015.81
2019-03-19T11:36:11.945Z,95012.88
2019-03-19T11:38:38.336Z,95008.65
2019-03-19T11:41:07.167Z,95007.96
2019-03-19T11:43:31.224Z,95005.12
2019-03-19T11:45:57.623Z,95004.46
2019-03-19T11:48:24.604Z,95000.37
2019-03-19T11:50:51.114Z,94994.80
2019-03-19T11:53:17.432Z,94993.25
2019-03-19T11:55:43.807Z,94985.44
2019-03-19T11:58:10.148Z,94986.94
2019-03-19T12:00:36.597Z,94988.96
2019-03-19T12:03:11.497Z,94980.48
2019-03-19T12:05:29.325Z,94978.59
2019-03-19T12:07:55.682Z,94983.55
2019-03-19T12:10:22.042Z,94978.66
2019-03-19T12:12:48.394Z,94973.85
2019-03-19T12:15:14.738Z,94973.66
2019-03-19T12:17:41.184Z,94973.80
2019-03-19T12:20:07.570Z,94966.89
2019-03-19T12:22:34.027Z,94966.58
2019-03-19T12:25:00.383Z,94961.52
2019-03-19T12:27:26.710Z,94962.44
2019-03-19T12:29:53.117Z,94957.65
2019-03-19T12:32:19.497Z,94963.28
2019-03-19T12:34:45.825Z,94964.11
2019-03-19T12:37:12.223Z,94957.74
2019-03-19T12:39:38.567Z,94955.47
2019-03-19T12:42:04.921Z,94955.63
2019-03-19T12:44:31.268Z,94951.82
2019-03-19T12:46:57.654Z,94955.52
2019-03-19T12:49:23.989Z,94953.26
2019-03-19T12:51:50.419Z,94949.59
2019-03-19T12:54:16.710Z,94953.06
2019-03-19T12:56:43.042Z,94949.70
2019-03-19T12:59:19.812Z,94948.89
2019-03-19T13:01:35.970Z,94952.20
2019-03-19T13:04:02.387Z,94933.59
2019-03-19T13:06:28.757Z,94950.33
2019-03-19T13:08:55.126Z,94948.09
2019-03-19T13:11:21.491Z,94952.38
2019-03-19T13:13:47.897Z,94939.11
2019-03-19T13:16:14.330Z,94948.56
2019-03-19T13:18:40.712Z,94947.50
2019-03-19T13:21:07.063Z,94941.88
2019-03-19T13:23:33.428Z,94943.55
2019-03-19T13:25:59.802Z,94944.98
2019-03-19T13:28:26.309Z,94942.78
2019-03-19T13:30:52.627Z,94937.55
2019-03-19T13:33:19.288Z,94943.91
2019-03-19T13:35:45.729Z,94946.50
2019-03-19T13:38:12.775Z,94946.73
2019-03-19T13:40:38.559Z,94949.17
2019-03-19T13:43:05.083Z,94945.45
2019-03-19T13:45:31.432Z,94946.13
2019-03-19T13:47:57.882Z,94943.30
2019-03-19T13:50:24.262Z,94946.33
2019-03-19T13:52:50.801Z,94946.13
2019-03-19T13:55:17.133Z,94945.09
2019-03-19T13:57:43.506Z,94946.47
2019-03-19T14:00:10.306Z,94940.28
2019-03-19T14:02:36.805Z,94943.80
2019-03-19T14:05:03.140Z,94939.66
2019-03-19T14:07:29.640Z,94938.69
2019-03-19T14:09:56.043Z,94938.28
2019-03-19T14:12:22.351Z,94935.91
2019-03-19T14:14:48.838Z,94918.05
2019-03-19T14:17:15.234Z,94930.83
2019-03-19T14:19:41.639Z,94927.48
2019-03-19T14:22:08.391Z,94934.88
2019-03-19T14:24:34.880Z,94934.39
2019-03-19T14:27:01.246Z,94939.52
2019-03-19T14:29:27.694Z,94937.91
2019-03-19T14:31:54.075Z,94936.09
2019-03-19T14:34:20.469Z,94942.45
2019-03-19T14:36:46.828Z,94938.38
2019-03-19T14:39:15.394Z,94938.35
2019-03-19T14:41:41.890Z,94937.82
2019-03-19T14:44:08.259Z,94943.25
2019-03-19T14:46:37.069Z,94944.45
2019-03-19T14:49:03.506Z,94944.45
2019-03-19T14:51:29.911Z,94952.73
2019-03-19T14:53:56.375Z,94951.06
2019-03-19T14:56:22.740Z,94954.47
2019-03-19T14:58:49.246Z,94963.13
2019-03-19T15:01:19.537Z,94966.72
2019-03-19T15:03:42.031Z,94963.42
2019-03-19T15:06:08.442Z,94966.51
2019-03-19T15:08:34.885Z,94979.98
2019-03-19T15:11:01.325Z,94976.34
2019-03-19T15:13:27.697Z,94988.32
2019-03-19T15:15:54.049Z,94989.14
2019-03-19T15:18:20.441Z,94991.55
2019-03-19T15:20:46.779Z,94992.91
2019-03-19T15:23:13.144Z,94998.00
2019-03-19T15:25:39.523Z,95000.83
2019-03-19T15:28:05.937Z,95004.09
2019-03-19T15:30:32.271Z,95013.30
2019-03-19T15:32:58.627Z,95004.33
2019-03-19T15:35:25.059Z,95025.18
2019-03-19T15:37:51.475Z,95028.47
2019-03-19T15:40:17.897Z,95028.78
2019-03-19T15:42:44.290Z,95030.75
2019-03-19T15:45:10.647Z,95040.12
2019-03-19T15:47:37.090Z,95035.77
2019-03-19T15:50:03.459Z,95032.85
2019-03-19T15:52:29.890Z,95034.95
2019-03-19T15:54:56.249Z,95028.28
2019-03-19T15:57:22.575Z,95033.32
2019-03-19T15:59:48.923Z,95046.70
2019-03-19T16:02:15.321Z,95050.25
2019-03-19T16:04:41.675Z,95053.16
2019-03-19T16:07:08.068Z,95056.35
2019-03-19T16:09:34.377Z,95073.75
2019-03-19T16:12:00.773Z,95080.00
2019-03-19T16:14:27.115Z,95087.95
2019-03-19T16:16:53.545Z,95087.56
2019-03-19T16:19:22.325Z,95095.96
2019-03-19T16:21:48.753Z,95094.20
2019-03-19T16:24:15.136Z,95091.63
2019-03-19T16:26:41.496Z,95099.95
2019-03-19T16:29:07.824Z,95101.02
2019-03-19T16:31:34.189Z,95109.09
2019-03-19T16:34:00.537Z,95110.17
2019-03-19T16:36:26.868Z,95110.53
2019-03-19T16:38:53.199Z,95113.64
2019-03-19T16:41:19.630Z,95121.58
2019-03-19T16:43:45.961Z,95123.80
2019-03-19T16:46:12.342Z,95136.71
2019-03-19T16:48:38.725Z,95141.41
2019-03-19T16:51:05.067Z,95145.39
2019-03-19T16:53:31.485Z,95149.05
2019-03-19T16:55:57.866Z,95150.59
2019-03-19T16:58:24.168Z,95155.07
2019-03-19T17:00:50.550Z,95163.17
2019-03-19T17:03:16.885Z,95155.89
2019-03-19T17:05:45.219Z,95170.09
2019-03-19T17:08:09.604Z,95169.98
2019-03-19T17:10:36.007Z,95174.11
2019-03-19T17:13:02.329Z,95174.32
2019-03-19T17:15:28.775Z,95178.34
2019-03-19T17:17:55.170Z,95180.70
2019-03-19T17:20:21.524Z,95185.86
2019-03-19T17:22:47.907Z,95194.18
2019-03-19T17:25:14.268Z,95193.60
2019-03-19T17:27:40.722Z,95200.88
2019-03-19T17:30:07.059Z,95206.28
2019-03-19T17:32:33.482Z,95206.06
2019-03-19T17:34:59.831Z,95213.45
2019-03-19T17:37:26.162Z,95218.14
2019-03-19T17:39:52.587Z,95221.19
2019-03-19T17:42:18.918Z,95222.03
2019-03-19T17:44:45.293Z,95222.75
2019-03-19T17:47:11.737Z,95229.80
2019-03-19T17:49:38.028Z,95238.59
2019-03-19T17:52:04.359Z,95237.65
2019-03-19T17:54:30.686Z,95247.04
2019-03-19T17:56:57.057Z,95249.73
2019-03-19T17:59:23.399Z,95259.82
2019-03-19T18:01:49.773Z,95260.06
2019-03-19T18:04:16.110Z,95261.91
2019-03-19T18:06:43.292Z,95261.44
2019-03-19T18:09:08.812Z,95264.84
2019-03-19T18:11:35.151Z,95266.00
2019-03-19T18:14:01.515Z,95270.16
2019-03-19T18:16:27.851Z,95270.00
2019-03-19T18:18:54.394Z,95270.26
2019-03-19T18:21:20.771Z,95274.03
2019-03-19T18:23:47.145Z,95276.84
2019-03-19T18:26:13.469Z,95276.25
2019-03-19T18:28:39.806Z,95284.34
2019-03-19T18:31:06.147Z,95284.80
2019-03-19T18:33:32.480Z,95280.48
2019-03-19T18:35:58.857Z,95289.02
2019-03-19T18:38:25.179Z,95292.09
2019-03-19T18:40:51.535Z,95293.71
2019-03-19T18:43:17.871Z,95295.13
2019-03-19T18:45:44.214Z,95288.69
2019-03-19T18:48:10.578Z,95295.44
2019-03-19T18:50:36.942Z,95293.09
2019-03-19T18:53:03.334Z,95297.72
2019-03-19T18:55:29.630Z,95290.18
2019-03-19T18:57:56.072Z,95296.16
2019-03-19T19:00:22.435Z,95304.94
2019-03-19T19:02:50.475Z,95304.01
2019-03-19T19:05:15.167Z,95309.30
2019-03-19T19:07:41.558Z,95311.88
2019-03-19T19:10:07.879Z,95313.61
2019-03-19T19:12:34.393Z,95311.97
2019-03-19T19:15:00.772Z,95312.70
2019-03-19T19:17:27.074Z,95318.55
2019-03-19T19:19:53.397Z,95320.30
2019-03-19T19:22:19.729Z,95318.98
2019-03-19T19:24:46.091Z,95319.45
2019-03-19T19:27:12.458Z,95327.67
2019-03-19T19:29:38.838Z,95328.37
2019-03-19T19:32:05.166Z,95333.53
2019-03-19T19:34:31.456Z,95335.61
2019-03-19T19:36:57.792Z,95338.32
2019-03-19T19:39:24.198Z,95343.44
2019-03-19T19:41:50.516Z,95346.61
2019-03-19T19:44:16.927Z,95349.56
2019-03-19T19:46:43.230Z,95349.09
2019-03-19T19:49:09.614Z,95350.84
2019-03-19T19:51:35.904Z,95351.16
2019-03-19T19:54:02.235Z,95350.38
2019-03-19T19:56:28.870Z,95364.05
2019-03-19T19:58:55.212Z,95366.03
2019-03-19T20:01:21.544Z,95371.55
2019-03-19T20:03:47.876Z,95371.55
2019-03-19T20:06:14.214Z,95368.97
2019-03-19T20:08:40.537Z,95376.43
2019-03-19T20:11:06.875Z,95381.59
2019-03-19T20:13:33.217Z,95384.29
2019-03-19T20:15:59.649Z,95386.70
2019-03-19T20:18:26.025Z,95394.23
2019-03-19T20:20:52.325Z,95393.73
2019-03-19T20:23:20.536Z,95395.70
2019-03-19T20:25:46.925Z,95394.73
2019-03-19T20:28:13.361Z,95405.50
2019-03-19T20:30:39.822Z,95401.91
2019-03-19T20:33:06.213Z,95401.80
2019-03-19T20:35:35.001Z,95403.75
2019-03-19T20:38:01.331Z,95412.84
2019-03-19T20:40:27.641Z,95413.06
2019-03-19T20:42:54.021Z,95418.75
2019-03-19T20:45:20.308Z,95421.86
2019-03-19T20:47:46.632Z,95422.91
2019-03-19T20:50:12.999Z,95428.80
2019-03-19T20:55:05.526Z,95429.70
2019-03-19T20:57:31.924Z,95433.80
2019-03-19T20:59:58.210Z,95432.97
2019-03-19T21:02:24.645Z,95430.16
2019-03-19T21:04:50.995Z,95434.27
2019-03-19T21:07:17.350Z,95432.73
2019-03-19T21:09:43.731Z,95439.27
2019-03-19T21:12:10.099Z,95442.30
2019-03-19T21:14:36.424Z,95441.59
2019-03-19T21:17:02.841Z,95441.84
2019-03-19T21:19:29.205Z,95447.21
2019-03-19T21:21:55.540Z,95444.39
2019-03-19T21:24:21.869Z,95442.98
2019-03-19T21:26:48.376Z,95446.59
2019-03-19T21:29:14.719Z,95446.81
2019-03-19T21:31:41.046Z,95453.16
2019-03-19T21:34:07.407Z,95444.85
2019-03-19T21:36:33.722Z,95445.44
2019-03-19T21:39:00.063Z,95446.57
2019-03-19T21:41:26.465Z,95454.36
2019-03-19T21:43:52.853Z,95446.48
2019-03-19T21:46:19.181Z,95454.33
2019-03-19T21:48:45.510Z,95454.17
2019-03-19T21:51:11.905Z,95457.42
2019-03-19T21:53:38.890Z,95458.63
2019-03-19T21:56:05.271Z,95458.71
2019-03-19T21:58:31.568Z,95457.76
2019-03-19T22:00:57.892Z,95462.62
2019-03-19T22:03:24.263Z,95461.92
2019-03-19T22:05:50.602Z,95464.87
2019-03-19T22:08:16.971Z,95464.34
2019-03-19T22:10:43.317Z,95462.14
2019-03-19T22:13:09.658Z,95463.23
2019-03-19T22:15:35.990Z,95465.47
2019-03-19T22:18:02.369Z,95468.50
2019-03-19T22:20:28.700Z,95468.13
2019-03-19T22:22:55.031Z,95466.47
2019-03-19T22:25:21.547Z,95470.09
2019-03-19T22:27:47.876Z,95457.84
2019-03-19T22:30:14.276Z,95472.87
2019-03-19T22:32:41.799Z,95472.63
2019-03-19T22:35:07.055Z,95470.97
2019-03-19T22:37:33.377Z,95470.59
2019-03-19T22:39:59.701Z,95469.89
2019-03-19T22:42:26.034Z,95474.58
2019-03-19T22:44:52.353Z,95474.20
2019-03-19T22:47:18.692Z,95477.61
2019-03-19T22:49:45.021Z,95480.84
2019-03-19T22:52:11.417Z,95478.64
2019-03-19T22:54:37.854Z,95482.72
2019-03-19T22:57:04.181Z,95482.72
2019-03-19T22:59:30.556Z,95480.59
2019-03-19T23:01:56.890Z,95485.03
2019-03-19T23:04:27.098Z,95485.12
2019-03-19T23:06:49.878Z,95482.30
2019-03-19T23:09:16.208Z,95483.47
2019-03-19T23:11:42.553Z,95489.65
2019-03-19T23:14:08.907Z,95486.70
2019-03-19T23:16:35.284Z,95485.41
2019-03-19T23:19:01.653Z,95488.94
2019-03-19T23:21:28.165Z,95492.55
2019-03-19T23:23:54.503Z,95492.17
2019-03-19T23:26:20.894Z,95493.83
2019-03-19T23:28:47.242Z,95495.78
2019-03-19T23:31:13.591Z,95503.84
2019-03-19T23:33:40.020Z,95498.69
2019-03-19T23:36:06.391Z,95504.78
2019-03-19T23:38:32.767Z,95501.92
2019-03-19T23:40:59.095Z,95506.81
2019-03-19T23:43:25.467Z,95511.05
2019-03-19T23:45:51.817Z,95509.39
2019-03-19T23:48:18.174Z,95503.99
2019-03-19T23:50:44.575Z,95505.73
2019-03-19T23:53:10.915Z,95507.73
2019-03-19T23:55:37.280Z,95512.54
2019-03-19T23:58:03.619Z,95513.66
